createdAt,value
2023-05-04T00:00:07.434Z,19.45
2023-05-04T00:00:39.064Z,19.45
2023-05-04T00:01:10.511Z,19.45
2023-05-04T00:01:41.902Z,19.44
2023-05-04T00:02:13.328Z,19.42
2023-05-04T00:02:44.967Z,19.44
2023-05-04T00:03:16.500Z,19.43
2023-05-04T00:03:48.129Z,19.41
2023-05-04T00:04:19.761Z,19.42
2023-05-04T00:04:51.217Z,19.44
2023-05-04T00:05:22.632Z,19.43
2023-05-04T00:05:54.028Z,19.41
2023-05-04T00:06:25.441Z,19.42
2023-05-04T00:06:56.857Z,19.41
2023-05-04T00:07:28.264Z,19.41
2023-05-04T00:07:59.687Z,19.41
2023-05-04T00:08:31.105Z,19.40
2023-05-04T00:09:02.539Z,19.40
2023-05-04T00:09:33.936Z,19.39
2023-05-04T00:10:05.581Z,19.38
2023-05-04T00:10:37.182Z,19.40
2023-05-04T00:11:08.593Z,19.39
2023-05-04T00:11:40.031Z,19.40
2023-05-04T00:12:11.442Z,19.38
2023-05-04T00:12:42.878Z,19.39
2023-05-04T00:13:14.453Z,19.33
2023-05-04T00:13:45.966Z,19.36
2023-05-04T00:14:17.558Z,19.37
2023-05-04T00:14:48.986Z,19.36
2023-05-04T00:15:20.408Z,19.36
2023-05-04T00:15:51.845Z,19.35
2023-05-04T00:16:23.332Z,19.36
2023-05-04T00:16:54.791Z,19.36
2023-05-04T00:17:26.217Z,19.34
2023-05-04T00:17:57.731Z,19.35
2023-05-04T00:18:29.167Z,19.33
2023-05-04T00:19:00.581Z,19.34
2023-05-04T00:19:32.011Z,19.35
2023-05-04T00:20:03.574Z,19.34
2023-05-04T00:20:35.118Z,19.35
2023-05-04T00:21:06.553Z,19.34
2023-05-04T00:21:37.950Z,19.34
2023-05-04T00:22:09.373Z,19.34
2023-05-04T00:22:40.795Z,19.33
2023-05-04T00:23:12.254Z,19.34
2023-05-04T00:23:43.675Z,19.32
2023-05-04T00:24:15.078Z,19.33
2023-05-04T00:24:46.534Z,19.33
2023-05-04T00:25:17.950Z,19.30
2023-05-04T00:25:49.355Z,19.32
2023-05-04T00:26:20.810Z,19.32
2023-05-04T00:26:52.229Z,19.31
2023-05-04T00:27:23.640Z,19.30
2023-05-04T00:27:55.069Z,19.31
2023-05-04T00:28:26.488Z,19.30
2023-05-04T00:28:57.888Z,19.29
2023-05-04T00:29:29.315Z,19.30
2023-05-04T00:30:00.929Z,19.31
2023-05-04T00:30:32.346Z,19.30
2023-05-04T00:31:03.762Z,19.29
2023-05-04T00:31:35.191Z,19.29
2023-05-04T00:32:06.704Z,19.30
2023-05-04T00:32:38.179Z,19.29
2023-05-04T00:33:09.657Z,19.27
2023-05-04T00:33:41.269Z,19.27
2023-05-04T00:34:12.671Z,19.27
2023-05-04T00:34:44.085Z,19.27
2023-05-04T00:35:15.521Z,19.26
2023-05-04T00:35:46.922Z,19.26
2023-05-04T00:36:18.335Z,19.27
2023-05-04T00:36:49.736Z,19.26
2023-05-04T00:37:21.128Z,19.26
2023-05-04T00:37:52.509Z,19.26
2023-05-04T00:38:23.912Z,19.27
2023-05-04T00:38:55.335Z,19.27
2023-05-04T00:39:26.758Z,19.27
2023-05-04T00:39:58.222Z,19.26
2023-05-04T00:40:29.647Z,19.25
2023-05-04T00:41:01.065Z,19.25
2023-05-04T00:41:32.471Z,19.25
2023-05-04T00:42:03.874Z,19.24
2023-05-04T00:42:35.268Z,19.24
2023-05-04T00:43:06.682Z,19.24
2023-05-04T00:43:38.093Z,19.23
2023-05-04T00:44:09.490Z,19.23
2023-05-04T00:44:40.911Z,19.23
2023-05-04T00:45:12.378Z,19.22
2023-05-04T00:45:43.814Z,19.22
2023-05-04T00:46:15.215Z,19.21
2023-05-04T00:46:46.675Z,19.22
2023-05-04T00:47:18.238Z,19.22
2023-05-04T00:47:49.813Z,19.22
2023-05-04T00:48:21.225Z,19.22
2023-05-04T00:48:52.669Z,19.22
2023-05-04T00:49:24.074Z,19.20
2023-05-04T00:49:55.473Z,19.20
2023-05-04T00:50:26.944Z,19.19
2023-05-04T00:50:58.337Z,19.20
2023-05-04T00:51:29.773Z,19.20
2023-05-04T00:52:01.182Z,19.20
2023-05-04T00:52:32.572Z,19.19
2023-05-04T00:53:03.999Z,19.20
2023-05-04T00:53:35.421Z,19.19
2023-05-04T00:54:06.824Z,19.17
2023-05-04T00:54:38.227Z,19.19
2023-05-04T00:55:09.632Z,19.18
2023-05-04T00:55:41.060Z,19.17
2023-05-04T00:56:12.459Z,19.18
2023-05-04T00:56:43.903Z,19.18
2023-05-04T00:57:15.310Z,19.17
2023-05-04T00:57:46.716Z,19.17
2023-05-04T00:58:18.143Z,19.17
2023-05-04T00:58:49.577Z,19.18
2023-05-04T00:59:20.971Z,19.15
2023-05-04T00:59:52.363Z,19.17
2023-05-04T01:00:23.799Z,19.16
2023-05-04T01:00:55.237Z,19.16
2023-05-04T01:01:26.702Z,19.16
2023-05-04T01:01:58.167Z,19.14
2023-05-04T01:02:29.592Z,19.14
2023-05-04T01:03:01.070Z,19.16
2023-05-04T01:03:32.575Z,19.14
2023-05-04T01:04:04.059Z,19.16
2023-05-04T01:04:35.575Z,19.15
2023-05-04T01:05:06.990Z,19.13
2023-05-04T01:05:38.385Z,19.13
2023-05-04T01:06:09.828Z,19.14
2023-05-04T01:06:41.287Z,19.13
2023-05-04T01:07:12.692Z,19.12
2023-05-04T01:07:44.099Z,19.13
2023-05-04T01:08:15.510Z,19.13
2023-05-04T01:08:46.922Z,19.13
2023-05-04T01:09:18.311Z,19.12
2023-05-04T01:09:49.719Z,19.11
2023-05-04T01:10:21.126Z,19.11
2023-05-04T01:10:52.539Z,19.12
2023-05-04T01:11:23.996Z,19.12
2023-05-04T01:11:55.395Z,19.10
2023-05-04T01:12:26.796Z,19.10
2023-05-04T01:12:58.225Z,19.11
2023-05-04T01:13:29.697Z,19.11
2023-05-04T01:14:01.092Z,19.08
2023-05-04T01:14:32.501Z,19.07
2023-05-04T01:15:03.908Z,19.07
2023-05-04T01:15:35.304Z,19.08
2023-05-04T01:16:06.713Z,19.08
2023-05-04T01:16:38.270Z,19.06
2023-05-04T01:17:09.790Z,19.07
2023-05-04T01:17:41.255Z,19.05
2023-05-04T01:18:12.763Z,19.05
2023-05-04T01:18:44.226Z,19.06
2023-05-04T01:19:15.636Z,19.05
2023-05-04T01:19:47.047Z,19.04
2023-05-04T01:20:18.472Z,19.04
2023-05-04T01:20:49.884Z,19.05
2023-05-04T01:21:21.273Z,19.04
2023-05-04T01:21:52.690Z,19.03
2023-05-04T01:22:24.136Z,19.01
2023-05-04T01:22:55.538Z,19.02
2023-05-04T01:23:26.953Z,19.02
2023-05-04T01:23:58.372Z,19.02
2023-05-04T01:24:29.775Z,19.02
2023-05-04T01:25:01.180Z,19.01
2023-05-04T01:25:32.587Z,19.00
2023-05-04T01:26:04.009Z,19.01
2023-05-04T01:26:35.419Z,19.00
2023-05-04T01:27:06.814Z,18.99
2023-05-04T01:27:38.246Z,19.00
2023-05-04T01:28:09.661Z,18.99
2023-05-04T01:28:41.048Z,18.99
2023-05-04T01:29:12.446Z,18.96
2023-05-04T01:29:43.852Z,18.97
2023-05-04T01:30:15.296Z,18.97
2023-05-04T01:30:46.730Z,18.97
2023-05-04T01:31:18.184Z,18.95
2023-05-04T01:31:49.597Z,18.97
2023-05-04T01:32:21.024Z,18.96
2023-05-04T01:32:52.506Z,18.96
2023-05-04T01:33:23.960Z,18.96
2023-05-04T01:33:55.372Z,18.96
2023-05-04T01:34:26.774Z,18.96
2023-05-04T01:34:58.163Z,18.96
2023-05-04T01:35:29.579Z,18.96
2023-05-04T01:36:00.988Z,18.95
2023-05-04T01:36:32.384Z,18.95
2023-05-04T01:37:03.828Z,18.95
2023-05-04T01:37:35.218Z,18.95
2023-05-04T01:38:06.652Z,18.96
2023-05-04T01:38:38.071Z,18.93
2023-05-04T01:39:09.511Z,18.92
2023-05-04T01:39:40.923Z,18.93
2023-05-04T01:40:12.363Z,18.93
2023-05-04T01:40:43.758Z,18.93
2023-05-04T01:41:15.159Z,18.92
2023-05-04T01:41:46.556Z,18.91
2023-05-04T01:42:17.964Z,18.92
2023-05-04T01:42:49.370Z,18.91
2023-05-04T01:43:20.808Z,18.90
2023-05-04T01:43:52.226Z,18.89
2023-05-04T01:44:23.668Z,18.90
2023-05-04T01:44:55.081Z,18.89
2023-05-04T01:45:26.507Z,18.89
2023-05-04T01:45:57.919Z,18.90
2023-05-04T01:46:29.396Z,18.90
2023-05-04T01:47:00.863Z,18.91
2023-05-04T01:47:32.302Z,18.89
2023-05-04T01:48:03.768Z,18.87
2023-05-04T01:48:35.204Z,18.86
2023-05-04T01:49:06.685Z,18.87
2023-05-04T01:49:38.092Z,18.88
2023-05-04T01:50:09.481Z,18.86
2023-05-04T01:50:40.903Z,18.87
2023-05-04T01:51:12.331Z,18.86
2023-05-04T01:51:43.746Z,18.86
2023-05-04T01:52:15.154Z,18.85
2023-05-04T01:52:46.560Z,18.85
2023-05-04T01:53:17.996Z,18.84
2023-05-04T01:53:49.414Z,18.83
2023-05-04T01:54:20.833Z,18.84
2023-05-04T01:54:52.240Z,18.85
2023-05-04T01:55:23.642Z,18.84
2023-05-04T01:55:55.058Z,18.83
2023-05-04T01:56:26.468Z,18.84
2023-05-04T01:56:57.929Z,18.83
2023-05-04T01:57:29.316Z,18.83
2023-05-04T01:58:00.703Z,18.80
2023-05-04T01:58:32.117Z,18.83
2023-05-04T01:59:03.569Z,18.81
2023-05-04T01:59:34.998Z,18.79
2023-05-04T02:00:06.551Z,18.80
2023-05-04T02:00:38.133Z,18.80
2023-05-04T02:01:09.548Z,18.81
2023-05-04T02:01:40.970Z,18.79
2023-05-04T02:02:12.371Z,18.78
2023-05-04T02:02:43.879Z,18.80
2023-05-04T02:03:15.437Z,18.79
2023-05-04T02:03:47.043Z,18.80
2023-05-04T02:04:18.556Z,18.78
2023-05-04T02:04:50.036Z,18.77
2023-05-04T02:05:21.456Z,18.78
2023-05-04T02:05:52.875Z,18.77
2023-05-04T02:06:24.277Z,18.77
2023-05-04T02:06:55.686Z,18.77
2023-05-04T02:07:27.102Z,18.75
2023-05-04T02:07:58.510Z,18.75
2023-05-04T02:08:29.919Z,18.76
2023-05-04T02:09:01.325Z,18.75
2023-05-04T02:09:32.770Z,18.75
2023-05-04T02:10:04.451Z,18.76
2023-05-04T02:10:36.066Z,18.74
2023-05-04T02:11:07.501Z,18.74
2023-05-04T02:11:38.911Z,18.73
2023-05-04T02:12:10.333Z,18.72
2023-05-04T02:12:41.804Z,18.72
2023-05-04T02:13:13.354Z,18.71
2023-05-04T02:13:44.815Z,18.73
2023-05-04T02:14:16.284Z,18.72
2023-05-04T02:14:47.980Z,18.70
2023-05-04T02:15:19.374Z,18.71
2023-05-04T02:15:50.800Z,18.72
2023-05-04T02:16:22.226Z,18.72
2023-05-04T02:16:53.663Z,18.71
2023-05-04T02:17:25.095Z,18.72
2023-05-04T02:17:56.611Z,18.72
2023-05-04T02:18:28.145Z,18.71
2023-05-04T02:18:59.535Z,18.71
2023-05-04T02:19:30.941Z,18.71
2023-05-04T02:20:02.543Z,18.70
2023-05-04T02:20:34.152Z,18.70
2023-05-04T02:21:05.578Z,18.69
2023-05-04T02:21:36.998Z,18.69
2023-05-04T02:22:08.398Z,18.69
2023-05-04T02:22:39.823Z,18.70
2023-05-04T02:23:11.252Z,18.69
2023-05-04T02:23:42.685Z,18.70
2023-05-04T02:24:14.096Z,18.67
2023-05-04T02:24:45.493Z,18.69
2023-05-04T02:25:16.905Z,18.67
2023-05-04T02:25:48.305Z,18.68
2023-05-04T02:26:19.713Z,18.68
2023-05-04T02:26:51.129Z,18.66
2023-05-04T02:27:22.557Z,18.67
2023-05-04T02:27:53.972Z,18.66
2023-05-04T02:28:25.411Z,18.66
2023-05-04T02:28:56.853Z,18.66
2023-05-04T02:29:28.267Z,18.66
2023-05-04T02:29:59.953Z,18.66
2023-05-04T02:30:31.356Z,18.66
2023-05-04T02:31:02.829Z,18.67
2023-05-04T02:31:34.323Z,18.67
2023-05-04T02:32:05.911Z,18.65
2023-05-04T02:32:37.484Z,18.64
2023-05-04T02:33:08.982Z,18.66
2023-05-04T02:33:40.671Z,18.64
2023-05-04T02:34:12.082Z,18.64
2023-05-04T02:34:43.513Z,18.64
2023-05-04T02:35:14.933Z,18.64
2023-05-04T02:35:46.352Z,18.63
2023-05-04T02:36:17.788Z,18.64
2023-05-04T02:36:49.218Z,18.63
2023-05-04T02:37:20.616Z,18.63
2023-05-04T02:37:52.016Z,18.63
2023-05-04T02:38:23.409Z,18.60
2023-05-04T02:38:54.802Z,18.63
2023-05-04T02:39:26.208Z,18.61
2023-05-04T02:39:57.634Z,18.63
2023-05-04T02:40:29.033Z,18.62
2023-05-04T02:41:00.453Z,18.60
2023-05-04T02:41:31.893Z,18.61
2023-05-04T02:42:03.309Z,18.61
2023-05-04T02:42:34.723Z,18.60
2023-05-04T02:43:06.132Z,18.60
2023-05-04T02:43:37.531Z,18.60
2023-05-04T02:44:08.946Z,18.60
2023-05-04T02:44:40.354Z,18.60
2023-05-04T02:45:11.768Z,18.58
2023-05-04T02:45:43.198Z,18.60
2023-05-04T02:46:14.791Z,18.56
2023-05-04T02:46:46.305Z,18.58
2023-05-04T02:47:17.709Z,18.59
2023-05-04T02:47:49.207Z,18.59
2023-05-04T02:48:20.625Z,18.58
2023-05-04T02:48:52.016Z,18.58
2023-05-04T02:49:23.429Z,18.58
2023-05-04T02:49:54.834Z,18.56
2023-05-04T02:50:26.240Z,18.58
2023-05-04T02:50:57.651Z,18.56
2023-05-04T02:51:29.056Z,18.56
2023-05-04T02:52:00.498Z,18.57
2023-05-04T02:52:31.924Z,18.56
2023-05-04T02:53:03.323Z,18.56
2023-05-04T02:53:34.754Z,18.57
2023-05-04T02:54:06.169Z,18.57
2023-05-04T02:54:37.589Z,18.56
2023-05-04T02:55:08.996Z,18.56
2023-05-04T02:55:40.412Z,18.55
2023-05-04T02:56:11.828Z,18.55
2023-05-04T02:56:43.261Z,18.54
2023-05-04T02:57:14.733Z,18.55
2023-05-04T02:57:46.132Z,18.55
2023-05-04T02:58:17.553Z,18.54
2023-05-04T02:58:48.951Z,18.55
2023-05-04T02:59:20.372Z,18.54
2023-05-04T02:59:51.799Z,18.55
2023-05-04T03:00:23.190Z,18.55
2023-05-04T03:00:54.614Z,18.56
2023-05-04T03:01:26.100Z,18.54
2023-05-04T03:01:57.530Z,18.54
2023-05-04T03:02:29.004Z,18.53
2023-05-04T03:03:00.500Z,18.53
2023-05-04T03:03:31.959Z,18.53
2023-05-04T03:04:03.407Z,18.52
2023-05-04T03:04:34.926Z,18.54
2023-05-04T03:05:06.377Z,18.56
2023-05-04T03:05:37.814Z,18.55
2023-05-04T03:06:09.198Z,18.56
2023-05-04T03:06:40.605Z,18.56
2023-05-04T03:07:12.008Z,18.53
2023-05-04T03:07:43.401Z,18.54
2023-05-04T03:08:14.810Z,18.51
2023-05-04T03:08:46.199Z,18.52
2023-05-04T03:09:17.618Z,18.54
2023-05-04T03:09:49.086Z,18.54
2023-05-04T03:10:20.507Z,18.54
2023-05-04T03:10:51.926Z,18.51
2023-05-04T03:11:23.324Z,18.53
2023-05-04T03:11:54.707Z,18.53
2023-05-04T03:12:26.109Z,18.53
2023-05-04T03:12:57.630Z,18.54
2023-05-04T03:13:29.079Z,18.53
2023-05-04T03:14:00.474Z,18.52
2023-05-04T03:14:31.879Z,18.52
2023-05-04T03:15:03.294Z,18.52
2023-05-04T03:15:34.688Z,18.50
2023-05-04T03:16:06.162Z,18.50
2023-05-04T03:16:37.656Z,18.50
2023-05-04T03:17:09.075Z,18.50
2023-05-04T03:17:40.552Z,18.50
2023-05-04T03:18:12.092Z,18.50
2023-05-04T03:19:32.443Z,18.49
2023-05-04T03:20:04.118Z,18.49
2023-05-04T03:20:35.739Z,18.49
2023-05-04T03:21:07.136Z,18.49
2023-05-04T03:21:38.562Z,18.48
2023-05-04T03:22:09.958Z,18.48
2023-05-04T03:22:41.384Z,18.48
2023-05-04T03:23:12.828Z,18.48
2023-05-04T03:23:44.248Z,18.48
2023-05-04T03:24:15.648Z,18.47
2023-05-04T03:24:47.072Z,18.48
2023-05-04T03:25:18.457Z,18.47
2023-05-04T03:25:49.850Z,18.47
2023-05-04T03:26:21.264Z,18.47
2023-05-04T03:26:52.672Z,18.46
2023-05-04T03:27:24.096Z,18.45
2023-05-04T03:27:55.516Z,18.46
2023-05-04T03:28:26.966Z,18.45
2023-05-04T03:28:58.385Z,18.45
2023-05-04T03:29:29.803Z,18.45
2023-05-04T03:30:01.232Z,18.46
2023-05-04T03:30:32.625Z,18.45
2023-05-04T03:31:04.045Z,18.46
2023-05-04T03:31:35.484Z,18.45
2023-05-04T03:32:07.054Z,18.45
2023-05-04T03:32:38.540Z,18.46
2023-05-04T03:33:10.047Z,18.45
2023-05-04T03:33:41.527Z,18.44
2023-05-04T03:34:12.953Z,18.43
2023-05-04T03:34:44.355Z,18.42
2023-05-04T03:35:20.949Z,18.43
2023-05-04T03:35:55.648Z,18.43
2023-05-04T03:36:27.065Z,18.43
2023-05-04T03:36:58.484Z,18.41
2023-05-04T03:37:29.908Z,18.41
2023-05-04T03:38:01.327Z,18.42
2023-05-04T03:38:32.738Z,18.41
2023-05-04T03:39:04.174Z,18.41
2023-05-04T03:39:35.817Z,18.40
2023-05-04T03:40:07.399Z,18.40
2023-05-04T03:40:39.098Z,18.38
2023-05-04T03:41:10.495Z,18.39
2023-05-04T03:41:41.910Z,18.38
2023-05-04T03:42:13.339Z,18.38
2023-05-04T03:42:44.751Z,18.35
2023-05-04T03:43:16.141Z,18.38
2023-05-04T03:43:47.546Z,18.39
2023-05-04T03:44:18.969Z,18.39
2023-05-04T03:44:50.376Z,18.35
2023-05-04T03:45:21.787Z,18.36
2023-05-04T03:45:53.274Z,18.38
2023-05-04T03:46:24.781Z,18.35
2023-05-04T03:46:56.201Z,18.37
2023-05-04T03:47:27.609Z,18.36
2023-05-04T03:47:59.065Z,18.35
2023-05-04T03:48:30.506Z,18.35
2023-05-04T03:49:01.902Z,18.37
2023-05-04T03:49:33.338Z,18.35
2023-05-04T03:50:04.954Z,18.35
2023-05-04T03:50:36.646Z,18.35
2023-05-04T03:51:08.052Z,18.36
2023-05-04T03:51:39.458Z,18.35
2023-05-04T03:52:10.862Z,18.34
2023-05-04T03:52:42.275Z,18.33
2023-05-04T03:53:13.694Z,18.33
2023-05-04T03:53:45.147Z,18.32
2023-05-04T03:54:16.548Z,18.34
2023-05-04T03:54:47.973Z,18.34
2023-05-04T03:55:19.398Z,18.35
2023-05-04T03:55:50.804Z,18.31
2023-05-04T03:56:22.215Z,18.34
2023-05-04T03:56:53.618Z,18.32
2023-05-04T03:57:25.027Z,18.33
2023-05-04T03:57:56.456Z,18.33
2023-05-04T03:58:27.866Z,18.32
2023-05-04T03:58:59.294Z,18.32
2023-05-04T03:59:30.717Z,18.31
2023-05-04T04:00:02.437Z,18.32
2023-05-04T04:00:33.968Z,18.32
2023-05-04T04:01:05.419Z,18.31
2023-05-04T04:01:36.841Z,18.31
2023-05-04T04:02:08.299Z,18.32
2023-05-04T04:02:39.756Z,18.32
2023-05-04T04:03:11.401Z,18.33
2023-05-04T04:03:43.148Z,18.32
2023-05-04T04:04:14.708Z,18.31
2023-05-04T04:04:46.209Z,18.31
2023-05-04T04:05:17.686Z,18.31
2023-05-04T04:05:49.100Z,18.29
2023-05-04T04:06:20.528Z,18.30
2023-05-04T04:06:51.945Z,18.29
2023-05-04T04:07:23.367Z,18.29
2023-05-04T04:07:54.783Z,18.28
2023-05-04T04:08:26.221Z,18.30
2023-05-04T04:08:57.623Z,18.29
2023-05-04T04:09:29.014Z,18.28
2023-05-04T04:10:00.427Z,18.28
2023-05-04T04:10:31.872Z,18.29
2023-05-04T04:11:03.278Z,18.29
2023-05-04T04:11:34.686Z,18.27
2023-05-04T04:12:06.093Z,18.28
2023-05-04T04:12:37.510Z,18.28
2023-05-04T04:13:09.002Z,18.28
2023-05-04T04:13:40.476Z,18.28
2023-05-04T04:14:11.898Z,18.27
2023-05-04T04:14:43.327Z,18.28
2023-05-04T04:15:14.743Z,18.27
2023-05-04T04:15:46.199Z,18.26
2023-05-04T04:16:17.616Z,18.27
2023-05-04T04:16:49.048Z,18.27
2023-05-04T04:17:20.474Z,18.27
2023-05-04T04:17:51.976Z,18.27
2023-05-04T04:18:23.468Z,18.27
2023-05-04T04:18:54.902Z,18.27
2023-05-04T04:19:26.318Z,18.27
2023-05-04T04:19:57.735Z,18.26
2023-05-04T04:20:29.186Z,18.27
2023-05-04T04:21:00.617Z,18.25
2023-05-04T04:21:32.012Z,18.25
2023-05-04T04:22:03.419Z,18.25
2023-05-04T04:22:34.810Z,18.23
2023-05-04T04:23:06.224Z,18.23
2023-05-04T04:23:37.623Z,18.24
2023-05-04T04:24:09.036Z,18.24
2023-05-04T04:24:40.442Z,18.23
2023-05-04T04:25:11.871Z,18.25
2023-05-04T04:25:44.516Z,18.25
2023-05-04T04:26:15.993Z,18.25
2023-05-04T04:26:47.408Z,18.24
2023-05-04T04:27:18.814Z,18.25
2023-05-04T04:27:50.273Z,18.24
2023-05-04T04:28:21.694Z,18.23
2023-05-04T04:28:53.098Z,18.24
2023-05-04T04:29:24.513Z,18.23
2023-05-04T04:29:55.936Z,18.24
2023-05-04T04:30:27.371Z,18.24
2023-05-04T04:30:58.839Z,18.24
2023-05-04T04:31:30.375Z,18.25
2023-05-04T04:32:01.860Z,18.24
2023-05-04T04:32:33.287Z,18.24
2023-05-04T04:33:04.745Z,18.24
2023-05-04T04:33:36.182Z,18.24
2023-05-04T04:34:07.590Z,18.24
2023-05-04T04:34:39.030Z,18.24
2023-05-04T04:35:10.438Z,18.25
2023-05-04T04:35:41.857Z,18.25
2023-05-04T04:36:13.300Z,18.25
2023-05-04T04:36:44.713Z,18.24
2023-05-04T04:37:16.142Z,18.24
2023-05-04T04:37:47.551Z,18.24
2023-05-04T04:38:18.962Z,18.23
2023-05-04T04:38:50.385Z,18.25
2023-05-04T04:39:21.847Z,18.24
2023-05-04T04:39:53.263Z,18.24
2023-05-04T04:40:24.658Z,18.24
2023-05-04T04:40:56.067Z,18.23
2023-05-04T04:41:27.524Z,18.25
2023-05-04T04:41:58.933Z,18.24
2023-05-04T04:42:30.394Z,18.24
2023-05-04T04:43:01.790Z,18.25
2023-05-04T04:43:33.198Z,18.23
2023-05-04T04:44:04.699Z,18.25
2023-05-04T04:44:36.107Z,18.24
2023-05-04T04:45:08.931Z,18.25
2023-05-04T04:45:41.534Z,18.25
2023-05-04T04:46:13.451Z,18.24
2023-05-04T04:46:45.694Z,18.25
2023-05-04T04:47:17.520Z,18.24
2023-05-04T04:47:49.491Z,18.25
2023-05-04T04:48:22.246Z,18.24
2023-05-04T04:48:54.155Z,18.25
2023-05-04T04:49:26.049Z,18.26
2023-05-04T04:49:57.956Z,18.26
2023-05-04T04:50:29.829Z,18.26
2023-05-04T04:51:01.332Z,18.26
2023-05-04T04:51:32.744Z,18.27
2023-05-04T04:52:04.166Z,18.28
2023-05-04T04:52:35.620Z,18.28
2023-05-04T04:53:07.045Z,18.28
2023-05-04T04:53:38.454Z,18.27
2023-05-04T04:54:09.865Z,18.27
2023-05-04T04:54:41.366Z,18.27
2023-05-04T04:55:12.798Z,18.27
2023-05-04T04:55:44.217Z,18.26
2023-05-04T04:56:15.619Z,18.26
2023-05-04T04:56:47.007Z,18.27
2023-05-04T04:57:18.414Z,18.28
2023-05-04T04:57:49.907Z,18.27
2023-05-04T04:58:21.319Z,18.28
2023-05-04T04:58:52.733Z,18.27
2023-05-04T04:59:24.141Z,18.27
2023-05-04T04:59:55.564Z,18.26
2023-05-04T05:00:27.016Z,18.28
2023-05-04T05:00:58.505Z,18.28
2023-05-04T05:01:30.248Z,18.28
2023-05-04T05:02:01.736Z,18.29
2023-05-04T05:02:33.184Z,18.28
2023-05-04T05:03:04.670Z,18.30
2023-05-04T05:03:36.178Z,18.29
2023-05-04T05:04:07.577Z,18.29
2023-05-04T05:04:39.066Z,18.28
2023-05-04T05:05:10.513Z,18.29
2023-05-04T05:05:41.986Z,18.28
2023-05-04T05:06:13.378Z,18.29
2023-05-04T05:06:44.786Z,18.29
2023-05-04T05:07:16.172Z,18.29
2023-05-04T05:07:47.615Z,18.30
2023-05-04T05:08:19.056Z,18.30
2023-05-04T05:08:50.518Z,18.31
2023-05-04T05:09:21.977Z,18.31
2023-05-04T05:09:53.381Z,18.30
2023-05-04T05:10:24.794Z,18.30
2023-05-04T05:10:56.568Z,18.31
2023-05-04T05:11:28.250Z,18.31
2023-05-04T05:11:59.645Z,18.32
2023-05-04T05:12:31.296Z,18.32
2023-05-04T05:13:02.843Z,18.32
2023-05-04T05:13:34.517Z,18.32
2023-05-04T05:14:06.052Z,18.32
2023-05-04T05:14:37.555Z,18.33
2023-05-04T05:15:09.143Z,18.32
2023-05-04T05:15:40.633Z,18.32
2023-05-04T05:16:12.181Z,18.32
2023-05-04T05:16:43.701Z,18.32
2023-05-04T05:17:15.265Z,18.33
2023-05-04T05:17:46.750Z,18.33
2023-05-04T05:18:18.200Z,18.33
2023-05-04T05:18:49.596Z,18.33
2023-05-04T05:19:21.030Z,18.34
2023-05-04T05:19:52.584Z,18.34
2023-05-04T05:20:24.006Z,18.33
2023-05-04T05:20:55.428Z,18.33
2023-05-04T05:21:26.879Z,18.33
2023-05-04T05:21:58.311Z,18.33
2023-05-04T05:22:29.717Z,18.34
2023-05-04T05:23:01.109Z,18.34
2023-05-04T05:23:32.520Z,18.34
2023-05-04T05:24:03.919Z,18.34
2023-05-04T05:24:35.364Z,18.35
2023-05-04T05:25:06.775Z,18.34
2023-05-04T05:25:39.080Z,18.34
2023-05-04T05:26:10.728Z,18.34
2023-05-04T05:26:42.143Z,18.35
2023-05-04T05:27:13.560Z,18.34
2023-05-04T05:27:44.957Z,18.35
2023-05-04T05:28:16.380Z,18.34
2023-05-04T05:28:47.824Z,18.35
2023-05-04T05:29:19.241Z,18.36
2023-05-04T05:29:50.635Z,18.37
2023-05-04T05:30:22.057Z,18.38
2023-05-04T05:30:53.472Z,18.38
2023-05-04T05:31:25.034Z,18.38
2023-05-04T05:31:56.515Z,18.38
2023-05-04T05:32:27.932Z,18.37
2023-05-04T05:32:59.389Z,18.38
2023-05-04T05:33:30.819Z,18.38
2023-05-04T05:34:02.236Z,18.38
2023-05-04T05:34:33.635Z,18.38
2023-05-04T05:35:05.109Z,18.39
2023-05-04T05:35:36.517Z,18.39
2023-05-04T05:36:07.934Z,18.39
2023-05-04T05:36:39.365Z,18.39
2023-05-04T05:37:10.784Z,18.39
2023-05-04T05:37:42.192Z,18.40
2023-05-04T05:38:13.595Z,18.40
2023-05-04T05:38:45.020Z,18.40
2023-05-04T05:39:16.419Z,18.40
2023-05-04T05:39:47.833Z,18.40
2023-05-04T05:40:19.276Z,18.40
2023-05-04T05:40:50.686Z,18.41
2023-05-04T05:41:22.075Z,18.41
2023-05-04T05:41:53.471Z,18.40
2023-05-04T05:42:24.869Z,18.41
2023-05-04T05:42:56.267Z,18.41
2023-05-04T05:43:27.713Z,18.42
2023-05-04T05:43:59.113Z,18.43
2023-05-04T05:44:30.510Z,18.44
2023-05-04T05:45:01.919Z,18.45
2023-05-04T05:45:33.368Z,18.45
2023-05-04T05:46:04.790Z,18.45
2023-05-04T05:46:36.331Z,18.46
2023-05-04T05:47:07.731Z,18.46
2023-05-04T05:47:39.171Z,18.46
2023-05-04T05:48:10.668Z,18.46
2023-05-04T05:48:42.116Z,18.47
2023-05-04T05:49:13.651Z,18.47
2023-05-04T05:49:46.359Z,18.47
2023-05-04T05:50:18.019Z,18.48
2023-05-04T05:50:49.478Z,18.48
2023-05-04T05:51:20.891Z,18.48
2023-05-04T05:51:52.323Z,18.48
2023-05-04T05:52:24.077Z,18.50
2023-05-04T05:52:55.960Z,18.49
2023-05-04T05:53:27.531Z,18.50
2023-05-04T05:53:59.135Z,18.51
2023-05-04T05:54:30.598Z,18.52
2023-05-04T05:55:02.754Z,18.53
2023-05-04T05:55:34.441Z,18.54
2023-05-04T05:56:05.865Z,18.54
2023-05-04T05:56:37.280Z,18.53
2023-05-04T05:57:08.737Z,18.54
2023-05-04T05:57:40.160Z,18.55
2023-05-04T05:58:11.589Z,18.56
2023-05-04T05:58:43.014Z,18.56
2023-05-04T05:59:14.707Z,18.57
2023-05-04T05:59:46.415Z,18.57
2023-05-04T06:00:17.825Z,18.56
2023-05-04T06:00:49.237Z,18.57
2023-05-04T06:01:20.692Z,18.56
2023-05-04T06:01:52.111Z,18.57
2023-05-04T06:02:23.858Z,18.58
2023-05-04T06:02:55.424Z,18.59
2023-05-04T06:03:27.106Z,18.59
2023-05-04T06:03:59.025Z,18.60
2023-05-04T06:04:30.631Z,18.59
2023-05-04T06:05:02.141Z,18.60
2023-05-04T06:05:33.696Z,18.61
2023-05-04T06:06:05.094Z,18.62
2023-05-04T06:06:36.501Z,18.60
2023-05-04T06:07:07.925Z,18.62
2023-05-04T06:07:39.402Z,18.63
2023-05-04T06:08:10.831Z,18.63
2023-05-04T06:08:42.256Z,18.63
2023-05-04T06:09:13.654Z,18.65
2023-05-04T06:09:45.135Z,18.64
2023-05-04T06:10:16.553Z,18.65
2023-05-04T06:10:48.165Z,18.66
2023-05-04T06:11:19.607Z,18.67
2023-05-04T06:11:51.893Z,18.67
2023-05-04T06:12:24.390Z,18.68
2023-05-04T06:12:55.940Z,18.68
2023-05-04T06:13:27.364Z,18.68
2023-05-04T06:13:58.787Z,18.68
2023-05-04T06:14:30.234Z,18.70
2023-05-04T06:15:01.655Z,18.70
2023-05-04T06:15:33.097Z,18.70
2023-05-04T06:16:04.701Z,18.71
2023-05-04T06:16:36.190Z,18.72
2023-05-04T06:17:07.649Z,18.72
2023-05-04T06:17:39.109Z,18.73
2023-05-04T06:18:10.610Z,18.72
2023-05-04T06:18:42.131Z,18.74
2023-05-04T06:19:13.582Z,18.75
2023-05-04T06:19:45.036Z,18.75
2023-05-04T06:20:16.448Z,18.75
2023-05-04T06:20:47.836Z,18.75
2023-05-04T06:21:19.270Z,18.78
2023-05-04T06:21:50.660Z,18.77
2023-05-04T06:22:22.092Z,18.78
2023-05-04T06:22:53.510Z,18.78
2023-05-04T06:23:25.017Z,18.79
2023-05-04T06:23:56.409Z,18.80
2023-05-04T06:24:27.946Z,18.80
2023-05-04T06:25:03.723Z,18.81
2023-05-04T06:25:36.655Z,18.83
2023-05-04T06:26:08.121Z,18.83
2023-05-04T06:26:39.604Z,18.84
2023-05-04T06:27:11.034Z,18.85
2023-05-04T06:27:42.495Z,18.84
2023-05-04T06:28:14.152Z,18.84
2023-05-04T06:28:45.561Z,18.85
2023-05-04T06:29:17.089Z,18.86
2023-05-04T06:29:48.573Z,18.86
2023-05-04T06:30:19.984Z,18.87
2023-05-04T06:30:51.396Z,18.87
2023-05-04T06:31:22.838Z,18.87
2023-05-04T06:31:54.345Z,18.88
2023-05-04T06:32:25.855Z,18.88
2023-05-04T06:32:57.376Z,18.89
2023-05-04T06:33:28.841Z,18.91
2023-05-04T06:34:00.265Z,18.91
2023-05-04T06:34:31.688Z,18.91
2023-05-04T06:35:03.131Z,18.92
2023-05-04T06:35:34.559Z,18.93
2023-05-04T06:36:05.968Z,18.94
2023-05-04T06:36:37.430Z,18.95
2023-05-04T06:37:08.874Z,18.96
2023-05-04T06:37:40.515Z,18.95
2023-05-04T06:38:11.911Z,18.96
2023-05-04T06:38:43.347Z,18.97
2023-05-04T06:39:14.785Z,18.97
2023-05-04T06:39:46.214Z,18.99
2023-05-04T06:40:17.674Z,19.00
2023-05-04T06:40:49.094Z,19.01
2023-05-04T06:41:20.522Z,19.01
2023-05-04T06:41:52.378Z,19.02
2023-05-04T06:42:23.874Z,19.02
2023-05-04T06:42:55.319Z,19.02
2023-05-04T06:43:26.856Z,19.04
2023-05-04T06:43:58.964Z,19.04
2023-05-04T06:44:30.503Z,19.05
2023-05-04T06:45:01.949Z,19.06
2023-05-04T06:45:33.468Z,19.06
2023-05-04T06:46:04.962Z,19.08